createdAt,value
2018-09-12T00:01:04.659Z,6.60
2018-09-12T00:03:35.412Z,6.90
2018-09-12T00:06:06.533Z,6.50
2018-09-12T00:08:37.132Z,6.20
2018-09-12T00:11:07.859Z,6.67
2018-09-12T00:13:38.152Z,6.30
2018-09-12T00:16:08.453Z,5.77
2018-09-12T00:18:39.169Z,6.93
2018-09-12T00:21:13.311Z,6.50
2018-09-12T00:23:43.723Z,6.73
2018-09-12T00:26:13.802Z,6.60
2018-09-12T00:28:43.903Z,6.30
2018-09-12T00:31:14.680Z,6.93
2018-09-12T00:33:48.967Z,6.90
2018-09-12T00:36:19.250Z,6.40
2018-09-12T00:38:48.955Z,6.70
2018-09-12T00:41:18.929Z,6.10
2018-09-12T00:43:53.049Z,6.40
2018-09-12T00:46:22.669Z,6.50
2018-09-12T00:48:52.209Z,6.20
2018-09-12T00:51:24.003Z,6.37
2018-09-12T00:53:54.416Z,6.37
2018-09-12T00:56:24.645Z,6.17
2018-09-12T00:58:54.778Z,6.30
2018-09-12T01:01:24.268Z,6.67
2018-09-12T01:03:54.354Z,6.50
2018-09-12T01:06:24.533Z,6.40
2018-09-12T01:08:54.116Z,6.23
2018-09-12T01:11:25.313Z,6.40
2018-09-12T01:13:55.869Z,5.50
2018-09-12T01:16:26.529Z,5.60
2018-09-12T01:18:57.186Z,6.60
2018-09-12T01:21:28.139Z,6.10
2018-09-12T01:23:59.590Z,6.43
2018-09-12T01:26:29.791Z,6.60
2018-09-12T01:28:59.727Z,6.80
2018-09-12T01:31:30.121Z,5.77
2018-09-12T01:33:59.969Z,6.60
2018-09-12T01:36:30.477Z,5.80
2018-09-12T01:39:06.637Z,5.87
2018-09-12T01:41:37.486Z,6.67
2018-09-12T01:44:07.925Z,6.30
2018-09-12T01:46:37.516Z,6.30
2018-09-12T01:49:07.683Z,6.27
2018-09-12T01:51:37.295Z,6.33
2018-09-12T01:54:08.386Z,6.67
2018-09-12T01:56:40.201Z,6.43
2018-09-12T01:59:11.355Z,5.77
2018-09-12T02:01:41.040Z,6.20
2018-09-12T02:04:12.419Z,5.90
2018-09-12T02:06:41.806Z,6.50
2018-09-12T02:09:13.856Z,6.70
2018-09-12T02:11:43.547Z,6.80
2018-09-12T02:14:13.705Z,5.87
2018-09-12T02:16:43.960Z,5.53
2018-09-12T02:19:14.726Z,5.70
2018-09-12T02:21:44.870Z,6.00
2018-09-12T02:24:15.417Z,5.53
2018-09-12T02:26:45.491Z,6.50
2018-09-12T02:29:15.486Z,5.80
2018-09-12T02:31:44.922Z,5.60
2018-09-12T02:34:15.486Z,5.70
2018-09-12T02:36:45.630Z,6.40
2018-09-12T02:39:16.423Z,5.73
2018-09-12T02:41:46.644Z,6.40
2018-09-12T02:44:19.109Z,5.90
2018-09-12T02:46:48.903Z,6.57
2018-09-12T02:49:19.060Z,5.90
2018-09-12T02:51:56.970Z,6.20
2018-09-12T02:54:27.332Z,5.90
2018-09-12T02:56:57.993Z,6.30
2018-09-12T02:59:27.966Z,6.33
2018-09-12T03:01:57.993Z,6.57
2018-09-12T03:04:27.778Z,6.33
2018-09-12T03:06:58.033Z,7.00
2018-09-12T03:09:28.074Z,7.13
2018-09-12T03:11:58.894Z,7.07
2018-09-12T03:14:30.245Z,7.17
2018-09-12T03:17:01.425Z,6.50
2018-09-12T03:19:32.095Z,6.60
2018-09-12T03:22:02.805Z,6.87
2018-09-12T03:24:32.945Z,6.77
2018-09-12T03:27:02.748Z,6.80
2018-09-12T03:29:34.452Z,7.30
2018-09-12T03:32:05.128Z,6.87
2018-09-12T03:34:35.608Z,7.10
2018-09-12T03:37:06.326Z,6.00
2018-09-12T03:39:36.526Z,7.23
2018-09-12T03:42:06.048Z,7.10
2018-09-12T03:44:38.279Z,6.57
2018-09-12T03:47:11.422Z,6.43
2018-09-12T03:49:41.551Z,6.83
2018-09-12T03:52:11.076Z,6.10
2018-09-12T03:54:41.286Z,7.20
2018-09-12T03:57:16.385Z,6.70
2018-09-12T03:59:46.492Z,6.70
2018-09-12T04:02:16.993Z,7.00
2018-09-12T04:04:47.489Z,6.70
2018-09-12T04:07:17.859Z,6.97
2018-09-12T04:09:52.285Z,6.90
2018-09-12T04:12:21.945Z,6.77
2018-09-12T04:14:51.397Z,6.93
2018-09-12T04:17:22.416Z,6.50
2018-09-12T04:19:52.527Z,7.03
2018-09-12T04:22:22.432Z,6.57
2018-09-12T04:24:52.541Z,6.93
2018-09-12T04:27:22.160Z,8.30
2018-09-12T04:29:52.764Z,7.63
2018-09-12T04:32:23.467Z,7.00
2018-09-12T04:34:52.949Z,7.50
2018-09-12T04:37:23.201Z,7.87
2018-09-12T04:39:53.349Z,7.63
2018-09-12T04:42:23.745Z,9.00
2018-09-12T04:44:53.902Z,11.13
2018-09-12T04:47:23.507Z,12.10
2018-09-12T04:49:53.927Z,9.70
2018-09-12T04:52:24.079Z,9.43
2018-09-12T04:54:53.656Z,8.60
2018-09-12T04:57:23.181Z,9.10
2018-09-12T04:59:53.174Z,9.87
2018-09-12T05:02:22.681Z,9.50
2018-09-12T05:04:52.841Z,10.10
2018-09-12T05:07:22.478Z,8.80
2018-09-12T05:09:52.067Z,10.13
2018-09-12T05:12:21.733Z,9.77
2018-09-12T05:14:52.998Z,9.50
2018-09-12T05:17:23.605Z,9.80
2018-09-12T05:19:52.989Z,9.73
2018-09-12T05:22:22.520Z,9.60
2018-09-12T05:24:52.772Z,9.40
2018-09-12T05:27:22.289Z,9.40
2018-09-12T05:29:51.985Z,9.53
2018-09-12T05:32:21.812Z,13.13
2018-09-12T05:34:52.632Z,16.33
2018-09-12T05:37:23.227Z,12.17
2018-09-12T05:39:52.866Z,11.40
2018-09-12T05:42:23.440Z,9.73
2018-09-12T05:44:53.021Z,9.90
2018-09-12T05:47:23.540Z,9.03
2018-09-12T05:49:54.021Z,9.03
2018-09-12T05:52:24.785Z,9.80
2018-09-12T05:54:54.517Z,9.40
2018-09-12T05:57:24.717Z,9.00
2018-09-12T05:59:55.268Z,9.60
2018-09-12T06:02:31.781Z,9.20
2018-09-12T06:05:02.013Z,9.03
2018-09-12T06:07:34.790Z,8.87
2018-09-12T06:10:09.832Z,7.97
2018-09-12T06:12:39.236Z,8.50
2018-09-12T06:15:10.040Z,9.03
2018-09-12T06:17:40.895Z,8.23
2018-09-12T06:20:10.633Z,8.10
2018-09-12T06:22:40.724Z,8.37
2018-09-12T06:25:10.519Z,8.00
2018-09-12T06:27:40.932Z,8.20
2018-09-12T06:30:10.741Z,8.90
2018-09-12T06:32:40.621Z,7.50
2018-09-12T06:35:10.403Z,8.60
2018-09-12T06:37:40.872Z,8.37
2018-09-12T06:40:11.665Z,9.90
2018-09-12T06:42:41.392Z,7.77
2018-09-12T06:45:11.942Z,8.50
2018-09-12T06:47:43.283Z,7.93
2018-09-12T06:50:12.861Z,8.23
2018-09-12T06:52:43.029Z,7.53
2018-09-12T06:55:12.576Z,8.30
2018-09-12T06:57:43.001Z,7.30
2018-09-12T07:00:13.917Z,7.37
2018-09-12T07:02:43.648Z,7.10
2018-09-12T07:05:13.788Z,7.10
2018-09-12T07:07:44.133Z,9.50
2018-09-12T07:10:13.622Z,9.63
2018-09-12T07:12:44.730Z,10.53
2018-09-12T07:15:15.310Z,10.63
2018-09-12T07:17:44.971Z,13.70
2018-09-12T07:20:15.231Z,13.50
2018-09-12T07:22:44.698Z,12.90
2018-09-12T07:25:16.071Z,12.60
2018-09-12T07:27:46.415Z,12.77
2018-09-12T07:30:16.415Z,10.87
2018-09-12T07:32:46.433Z,10.90
2018-09-12T07:35:16.538Z,10.27
2018-09-12T07:37:51.125Z,10.00
2018-09-12T07:40:20.857Z,11.27
2018-09-12T07:42:51.823Z,11.37
2018-09-12T07:45:22.477Z,11.50
2018-09-12T07:47:52.159Z,10.30
2018-09-12T07:50:22.036Z,11.10
2018-09-12T07:52:51.676Z,10.50
2018-09-12T07:55:21.748Z,10.67
2018-09-12T07:57:51.578Z,9.13
2018-09-12T08:00:21.375Z,10.03
2018-09-12T08:02:51.786Z,9.17
2018-09-12T08:05:21.682Z,11.17
2018-09-12T08:07:51.298Z,10.57
2018-09-12T08:10:21.897Z,11.57
2018-09-12T08:12:51.642Z,10.10
2018-09-12T08:15:27.258Z,9.80
2018-09-12T08:17:57.701Z,9.00
2018-09-12T08:20:27.939Z,9.50
2018-09-12T08:22:59.116Z,9.70
2018-09-12T08:25:30.985Z,9.33
2018-09-12T08:28:00.754Z,8.20
2018-09-12T08:30:31.149Z,7.93
2018-09-12T08:33:00.801Z,7.93
2018-09-12T08:35:31.586Z,7.00
2018-09-12T08:38:01.280Z,7.83
2018-09-12T08:40:31.437Z,7.20
2018-09-12T08:43:02.344Z,7.23
2018-09-12T08:45:32.064Z,6.63
2018-09-12T08:48:02.659Z,6.10
2018-09-12T08:50:33.717Z,6.13
2018-09-12T08:53:03.574Z,6.00
2018-09-12T08:55:34.137Z,6.60
2018-09-12T08:58:03.990Z,6.50
2018-09-12T09:00:34.787Z,6.80
2018-09-12T09:03:06.177Z,7.30
2018-09-12T09:05:36.177Z,7.30
2018-09-12T09:08:07.492Z,7.67
2018-09-12T09:10:37.258Z,8.40
2018-09-12T09:13:07.934Z,7.20
2018-09-12T09:15:38.229Z,6.90
2018-09-12T09:18:12.300Z,5.47
2018-09-12T09:20:43.583Z,6.70
2018-09-12T09:23:13.909Z,6.90
2018-09-12T09:25:48.235Z,8.57
2018-09-12T09:28:21.941Z,8.30
2018-09-12T09:30:51.689Z,9.07
2018-09-12T09:33:21.531Z,8.70
2018-09-12T09:35:51.837Z,7.17
2018-09-12T09:38:21.721Z,7.80
2018-09-12T09:40:52.197Z,8.20
2018-09-12T09:43:23.441Z,7.20
2018-09-12T09:45:53.433Z,7.57
2018-09-12T09:48:23.938Z,6.47
2018-09-12T09:50:53.652Z,7.50
2018-09-12T09:53:23.917Z,7.00
2018-09-12T09:55:54.751Z,7.97
2018-09-12T09:58:24.417Z,7.47
2018-09-12T10:00:59.524Z,6.03
2018-09-12T10:03:34.277Z,6.07
2018-09-12T10:06:09.914Z,6.07
2018-09-12T10:08:49.577Z,6.53
2018-09-12T10:11:19.301Z,7.23
2018-09-12T10:13:53.861Z,6.30
2018-09-12T10:16:24.039Z,5.73
2018-09-12T10:18:55.255Z,5.90
2018-09-12T10:21:26.249Z,5.97
2018-09-12T10:23:56.890Z,6.20
2018-09-12T10:26:27.289Z,5.70
2018-09-12T10:28:58.240Z,5.60
2018-09-12T10:31:29.103Z,5.50
2018-09-12T10:33:58.697Z,6.27
2018-09-12T10:36:29.659Z,5.70
2018-09-12T10:38:59.489Z,4.90
2018-09-12T10:41:29.085Z,5.57
2018-09-12T10:43:58.985Z,5.47
2018-09-12T10:46:28.545Z,5.50
2018-09-12T10:48:59.612Z,5.40
2018-09-12T10:51:30.766Z,5.00
2018-09-12T10:54:00.375Z,5.60
2018-09-12T10:56:30.593Z,6.00
2018-09-12T10:59:01.030Z,6.07
2018-09-12T11:01:30.509Z,6.17
2018-09-12T11:04:00.025Z,6.00
2018-09-12T11:06:29.694Z,4.80
2018-09-12T11:09:00.112Z,5.13
2018-09-12T11:11:30.629Z,4.97
2018-09-12T11:14:02.013Z,4.93
2018-09-12T11:16:32.794Z,5.00
2018-09-12T11:19:03.120Z,5.00
2018-09-12T11:21:32.708Z,4.13
2018-09-12T11:24:03.384Z,5.10
2018-09-12T11:26:33.037Z,4.47
2018-09-12T11:29:02.713Z,4.43
2018-09-12T11:31:33.004Z,4.80
2018-09-12T11:34:02.556Z,5.17
2018-09-12T11:36:32.312Z,5.47
2018-09-12T11:39:02.093Z,5.00
2018-09-12T11:41:32.555Z,5.40
2018-09-12T11:44:02.445Z,4.43
2018-09-12T11:46:31.930Z,4.40
2018-09-12T11:49:01.604Z,4.50
2018-09-12T11:51:31.733Z,4.93
2018-09-12T11:54:01.446Z,4.90
2018-09-12T11:56:31.715Z,5.50
2018-09-12T11:59:01.359Z,6.43
2018-09-12T12:01:32.250Z,5.90
2018-09-12T12:04:01.795Z,5.77
2018-09-12T12:06:31.410Z,4.70
2018-09-12T12:09:01.101Z,4.77
2018-09-12T12:11:30.705Z,5.13
2018-09-12T12:14:01.499Z,5.83
2018-09-12T12:16:31.139Z,5.00
2018-09-12T12:19:01.545Z,5.20
2018-09-12T12:21:31.576Z,5.23
2018-09-12T12:24:01.411Z,4.70
2018-09-12T12:26:31.169Z,5.20
2018-09-12T12:29:00.982Z,4.67
2018-09-12T12:31:30.505Z,5.23
2018-09-12T12:34:00.045Z,4.43
2018-09-12T12:36:30.694Z,5.80
2018-09-12T12:39:00.311Z,4.73
2018-09-12T12:41:31.525Z,4.53
2018-09-12T12:44:01.202Z,5.07
2018-09-12T12:46:31.113Z,4.70
2018-09-12T12:49:02.199Z,5.00
2018-09-12T12:51:33.890Z,4.60
2018-09-12T12:54:04.137Z,4.93
2018-09-12T12:56:33.676Z,5.33
2018-09-12T12:59:03.288Z,5.17
2018-09-12T13:01:35.045Z,4.70
2018-09-12T13:04:05.053Z,4.47
2018-09-12T13:06:35.075Z,4.47
2018-09-12T13:09:07.221Z,5.03
2018-09-12T13:11:37.620Z,6.53
2018-09-12T13:14:07.334Z,4.90
2018-09-12T13:16:38.552Z,4.50
2018-09-12T13:19:10.464Z,4.70
2018-09-12T13:21:41.417Z,5.23
2018-09-12T13:24:11.805Z,5.23
2018-09-12T13:26:42.076Z,4.87
2018-09-12T13:29:11.664Z,5.43
2018-09-12T13:31:41.287Z,5.63
2018-09-12T13:34:11.639Z,4.80
2018-09-12T13:36:42.022Z,4.60
2018-09-12T13:39:14.562Z,5.40
2018-09-12T13:41:44.556Z,5.40
2018-09-12T13:44:15.970Z,5.50
2018-09-12T13:46:47.036Z,4.63
2018-09-12T13:49:17.977Z,4.90
2018-09-12T13:51:47.725Z,5.53
2018-09-12T13:54:18.482Z,5.37
2018-09-12T13:56:49.799Z,5.33
2018-09-12T13:59:19.302Z,5.80
2018-09-12T14:01:51.344Z,6.00
2018-09-12T14:04:21.134Z,6.27
2018-09-12T14:06:50.920Z,5.00
2018-09-12T14:09:20.514Z,6.40
2018-09-12T14:11:50.709Z,5.93
2018-09-12T14:15:44.393Z,5.13
2018-09-12T14:18:15.141Z,5.27
2018-09-12T14:20:45.964Z,4.90
2018-09-12T14:23:16.491Z,5.27
2018-09-12T14:25:47.679Z,5.53
2018-09-12T14:28:18.165Z,5.17
2018-09-12T14:30:48.985Z,5.10
2018-09-12T14:33:19.521Z,4.60
2018-09-12T14:35:53.957Z,5.77
2018-09-12T14:38:24.232Z,5.77
2018-09-12T14:40:53.875Z,6.03
2018-09-12T14:43:26.045Z,5.77
2018-09-12T14:45:55.556Z,4.90
2018-09-12T14:48:25.847Z,5.00
2018-09-12T14:50:56.498Z,4.77
2018-09-12T14:53:26.598Z,5.50
2018-09-12T14:55:58.001Z,5.23
2018-09-12T14:58:28.277Z,4.60
2018-09-12T15:00:59.196Z,4.97
2018-09-12T15:03:33.884Z,4.40
2018-09-12T15:06:04.965Z,4.13
2018-09-12T15:08:34.700Z,5.00
2018-09-12T15:11:04.251Z,5.00
2018-09-12T15:13:33.830Z,5.40
2018-09-12T15:16:16.870Z,5.83
2018-09-12T15:18:54.312Z,5.30
2018-09-12T15:21:34.036Z,6.43
2018-09-12T15:24:12.549Z,5.43
2018-09-12T15:26:43.375Z,5.37
2018-09-12T15:29:12.960Z,5.20
2018-09-12T15:31:43.017Z,5.10
2018-09-12T15:34:13.308Z,4.63
2018-09-12T15:36:43.241Z,5.43
2018-09-12T15:39:13.033Z,4.93
2018-09-12T15:41:43.431Z,5.47
2018-09-12T15:44:13.032Z,5.07
2018-09-12T15:46:43.039Z,5.90
2018-09-12T15:49:13.033Z,5.03
2018-09-12T15:51:43.505Z,5.10
2018-09-12T15:54:14.391Z,5.03
2018-09-12T15:56:44.566Z,5.50
2018-09-12T15:59:14.223Z,5.80
2018-09-12T16:01:52.109Z,6.03
2018-09-12T16:04:22.854Z,8.10
2018-09-12T16:06:56.705Z,5.70
2018-09-12T16:09:26.873Z,5.57
2018-09-12T16:11:57.247Z,5.70
2018-09-12T16:14:27.726Z,5.80
2018-09-12T16:17:04.647Z,5.07
2018-09-12T16:19:34.363Z,5.17
2018-09-12T16:22:04.765Z,5.80
2018-09-12T16:24:37.853Z,4.80
2018-09-12T16:27:07.637Z,6.20
2018-09-12T16:29:43.867Z,5.83
2018-09-12T16:32:21.513Z,5.17
2018-09-12T16:34:51.878Z,4.43
2018-09-12T16:37:25.161Z,6.23
2018-09-12T16:39:55.932Z,5.10
2018-09-12T16:42:25.384Z,5.60
2018-09-12T16:44:55.893Z,5.67
2018-09-12T16:47:25.405Z,4.80
2018-09-12T16:49:55.449Z,5.10
2018-09-12T16:52:35.168Z,5.20
2018-09-12T16:55:06.639Z,5.93
2018-09-12T16:57:43.480Z,5.40
2018-09-12T17:00:17.353Z,4.93
2018-09-12T17:02:49.173Z,5.90
2018-09-12T17:05:18.701Z,6.03
2018-09-12T17:07:59.712Z,5.67
2018-09-12T17:10:34.141Z,5.33
2018-09-12T17:13:04.622Z,6.60
2018-09-12T17:15:38.717Z,6.17
2018-09-12T17:18:12.106Z,5.80
2018-09-12T17:20:44.137Z,6.90
2018-09-12T17:23:22.925Z,7.17
2018-09-12T17:25:55.225Z,7.10
2018-09-12T17:28:30.859Z,6.77
2018-09-12T17:31:06.448Z,6.73
2018-09-12T17:33:43.655Z,6.27
2018-09-12T17:36:13.561Z,7.00
2018-09-12T17:38:43.448Z,6.97
2018-09-12T17:41:14.252Z,6.40
2018-09-12T17:43:44.812Z,6.30
2018-09-12T17:46:16.161Z,7.47
2018-09-12T17:48:46.897Z,7.30
2018-09-12T17:51:16.441Z,7.17
2018-09-12T17:53:47.013Z,7.00
2018-09-12T17:56:17.142Z,6.23
2018-09-12T17:58:47.814Z,6.37
2018-09-12T18:01:20.130Z,6.50
2018-09-12T18:03:50.458Z,5.70
2018-09-12T18:06:20.893Z,5.90
2018-09-12T18:08:50.716Z,6.00
2018-09-12T18:11:21.744Z,5.73
2018-09-12T18:13:51.599Z,6.03
2018-09-12T18:16:21.912Z,6.03
2018-09-12T18:18:51.666Z,6.17
2018-09-12T18:21:21.854Z,6.30
2018-09-12T18:23:57.496Z,7.00
2018-09-12T18:26:27.148Z,7.00
2018-09-12T18:28:59.302Z,6.53
2018-09-12T18:31:30.599Z,7.00
2018-09-12T18:34:04.284Z,7.63
2018-09-12T18:36:33.894Z,7.03
2018-09-12T18:39:05.177Z,7.13
2018-09-12T18:41:35.324Z,7.10
2018-09-12T18:44:05.094Z,7.63
2018-09-12T18:46:35.523Z,8.97
2018-09-12T18:49:05.303Z,8.07
2018-09-12T18:51:34.910Z,7.83
2018-09-12T18:54:05.862Z,7.77
2018-09-12T18:56:37.092Z,7.27
2018-09-12T18:59:11.335Z,7.40
2018-09-12T19:01:42.071Z,6.93
2018-09-12T19:04:11.857Z,7.10
2018-09-12T19:06:41.790Z,6.80
2018-09-12T19:09:12.920Z,6.40
2018-09-12T19:11:43.792Z,6.40
2018-09-12T19:14:14.277Z,7.47
2018-09-12T19:16:44.129Z,7.20
2018-09-12T19:19:14.404Z,6.00
2018-09-12T19:21:44.171Z,7.00
2018-09-12T19:24:14.352Z,6.47
2018-09-12T19:26:44.690Z,6.00
2018-09-12T19:29:14.298Z,5.80
2018-09-12T19:31:44.019Z,6.27
2018-09-12T19:34:13.681Z,7.63
2018-09-12T19:36:43.971Z,7.87
2018-09-12T19:39:15.883Z,8.00
2018-09-12T19:41:46.987Z,7.90
2018-09-12T19:44:18.058Z,8.63
2018-09-12T19:46:49.849Z,8.10
2018-09-12T19:49:19.509Z,7.80
2018-09-12T19:51:50.894Z,8.67
2018-09-12T19:54:20.570Z,9.00
2018-09-12T19:56:54.441Z,8.10
2018-09-12T19:59:24.231Z,8.33
2018-09-12T20:01:54.103Z,10.60
2018-09-12T20:04:24.409Z,8.57
2018-09-12T20:06:54.139Z,7.50
2018-09-12T20:09:25.116Z,8.50
2018-09-12T20:11:55.697Z,7.77
2018-09-12T20:14:25.442Z,7.67
2018-09-12T20:16:56.189Z,7.60
2018-09-12T20:19:27.476Z,8.37
2018-09-12T20:21:58.570Z,7.77
2018-09-12T20:24:29.548Z,7.90
2018-09-12T20:27:02.006Z,8.23
2018-09-12T20:29:36.451Z,9.03
2018-09-12T20:32:07.119Z,8.77
2018-09-12T20:34:37.958Z,9.43
2018-09-12T20:37:08.923Z,9.37
2018-09-12T20:39:39.295Z,9.70
2018-09-12T20:42:08.950Z,9.00
2018-09-12T20:44:40.386Z,9.63
2018-09-12T20:47:09.850Z,10.70
2018-09-12T20:49:40.200Z,10.20
2018-09-12T20:52:10.748Z,9.90
2018-09-12T20:54:40.790Z,10.50
2018-09-12T20:57:13.859Z,9.30
2018-09-12T20:59:43.635Z,9.70
2018-09-12T21:02:14.000Z,9.30
2018-09-12T21:04:43.674Z,9.43
2018-09-12T21:07:13.909Z,9.37
2018-09-12T21:09:44.594Z,9.47
2018-09-12T21:12:14.124Z,10.33
2018-09-12T21:14:44.754Z,9.37
2018-09-12T21:17:14.393Z,9.33
2018-09-12T21:19:44.037Z,10.30
2018-09-12T21:22:18.952Z,9.97
2018-09-12T21:24:50.928Z,9.10
2018-09-12T21:27:25.717Z,9.13
2018-09-12T21:29:55.910Z,9.50
2018-09-12T21:32:26.582Z,9.30
2018-09-12T21:34:56.894Z,9.63
2018-09-12T21:37:26.533Z,8.83
2018-09-12T21:39:56.409Z,9.20
2018-09-12T21:42:30.949Z,9.20
2018-09-12T21:45:02.572Z,8.60
2018-09-12T21:47:32.893Z,8.20
2018-09-12T21:50:03.541Z,8.17
2018-09-12T21:52:35.111Z,9.10
2018-09-12T21:55:04.971Z,8.33
2018-09-12T21:57:35.386Z,8.10
2018-09-12T22:00:06.185Z,8.57
2018-09-12T22:02:37.406Z,9.00
2018-09-12T22:05:09.042Z,7.80
2018-09-12T22:07:38.906Z,7.60
2018-09-12T22:10:08.890Z,8.30
2018-09-12T22:12:38.920Z,8.63
2018-09-12T22:15:10.130Z,8.43
2018-09-12T22:17:40.168Z,8.13
2018-09-12T22:20:18.317Z,8.30
2018-09-12T22:22:48.351Z,8.27
2018-09-12T22:25:18.925Z,8.77
2018-09-12T22:27:50.733Z,8.87
2018-09-12T22:30:21.454Z,7.70
2018-09-12T22:32:52.140Z,8.30
2018-09-12T22:35:22.829Z,7.67
2018-09-12T22:37:53.428Z,7.50
2018-09-12T22:40:23.459Z,8.83
2018-09-12T22:42:54.366Z,8.57
2018-09-12T22:45:24.026Z,8.50
2018-09-12T22:47:56.550Z,8.33
2018-09-12T22:50:26.917Z,9.33
2018-09-12T22:52:58.825Z,8.57
2018-09-12T22:55:33.754Z,8.40
2018-09-12T22:58:03.961Z,8.20
2018-09-12T23:00:33.660Z,7.77
2018-09-12T23:03:03.305Z,7.77
2018-09-12T23:05:33.150Z,8.10
2018-09-12T23:08:03.710Z,8.13
2018-09-12T23:10:33.990Z,8.43
2018-09-12T23:13:04.331Z,7.30
2018-09-12T23:15:33.932Z,8.07
2018-09-12T23:18:05.078Z,8.30
2018-09-12T23:20:35.121Z,8.00
2018-09-12T23:23:05.077Z,7.53
2018-09-12T23:25:35.821Z,7.80
2018-09-12T23:28:05.311Z,7.97
2018-09-12T23:30:34.883Z,8.27
2018-09-12T23:33:05.828Z,7.13
2018-09-12T23:35:36.229Z,7.33
2018-09-12T23:38:06.115Z,7.17
2018-09-12T23:40:40.963Z,7.90
2018-09-12T23:43:10.648Z,7.90
2018-09-12T23:45:40.448Z,7.57
2018-09-12T23:48:20.000Z,7.30
2018-09-12T23:50:50.173Z,7.50
2018-09-12T23:53:21.603Z,6.47
2018-09-12T23:55:52.469Z,7.00
2018-09-12T23:58:22.643Z,6.90
